sensor_id;sensor_type;location;lat;lon;timestamp;temperature;humidity
19385;DHT22;9828;54.122;17.974;2023-10-13T00:26:26;9.60;99.90
19385;DHT22;9828;54.122;17.974;2023-10-13T00:31:51;9.60;99.90
19385;DHT22;9828;54.122;17.974;2023-10-13T00:37:13;9.50;99.90
19385;DHT22;9828;54.122;17.974;2023-10-13T00:42:39;9.50;99.90
19385;DHT22;9828;54.122;17.974;2023-10-13T00:48:12;9.40;99.90
19385;DHT22;9828;54.122;17.974;2023-10-13T00:53:37;9.30;99.90
19385;DHT22;9828;54.122;17.974;2023-10-13T00:59:01;9.30;99.90
19385;DHT22;9828;54.122;17.974;2023-10-13T01:04:24;9.30;99.90
19385;DHT22;9828;54.122;17.974;2023-10-13T01:09:49;9.30;99.90
19385;DHT22;9828;54.122;17.974;2023-10-13T01:15:33;9.20;99.90
19385;DHT22;9828;54.122;17.974;2023-10-13T01:21:19;9.10;99.90
19385;DHT22;9828;54.122;17.974;2023-10-13T01:26:48;9.00;99.90
19385;DHT22;9828;54.122;17.974;2023-10-13T01:32:12;9.00;99.90
19385;DHT22;9828;54.122;17.974;2023-10-13T01:37:33;9.00;96.90
19385;DHT22;9828;54.122;17.974;2023-10-13T01:42:54;8.90;99.90
19385;DHT22;9828;54.122;17.974;2023-10-13T01:48:17;8.90;99.90
19385;DHT22;9828;54.122;17.974;2023-10-13T01:54:07;8.90;99.90
19385;DHT22;9828;54.122;17.974;2023-10-13T01:59:32;8.90;99.90
19385;DHT22;9828;54.122;17.974;2023-10-13T02:04:55;8.80;77.80
19385;DHT22;9828;54.122;17.974;2023-10-13T02:10:18;8.80;99.90
19385;DHT22;9828;54.122;17.974;2023-10-13T02:15:45;8.80;99.90
19385;DHT22;9828;54.122;17.974;2023-10-13T02:21:08;8.80;99.90
19385;DHT22;9828;54.122;17.974;2023-10-13T02:26:35;8.80;1.00
19385;DHT22;9828;54.122;17.974;2023-10-13T02:31:59;8.80;1.00
19385;DHT22;9828;54.122;17.974;2023-10-13T02:37:25;8.70;1.00
19385;DHT22;9828;54.122;17.974;2023-10-13T02:42:49;8.70;1.00
19385;DHT22;9828;54.122;17.974;2023-10-13T02:48:10;8.60;1.00
19385;DHT22;9828;54.122;17.974;2023-10-13T02:53:37;8.70;1.00
19385;DHT22;9828;54.122;17.974;2023-10-13T02:58:59;8.60;99.90
19385;DHT22;9828;54.122;17.974;2023-10-13T03:04:26;8.50;1.00
19385;DHT22;9828;54.122;17.974;2023-10-13T03:09:51;8.50;1.00
19385;DHT22;9828;54.122;17.974;2023-10-13T03:15:13;8.50;1.00
19385;DHT22;9828;54.122;17.974;2023-10-13T03:20:38;8.50;99.90
19385;DHT22;9828;54.122;17.974;2023-10-13T03:26:09;8.50;99.90
19385;DHT22;9828;54.122;17.974;2023-10-13T03:31:31;8.40;99.90
19385;DHT22;9828;54.122;17.974;2023-10-13T03:36:57;8.40;1.00
19385;DHT22;9828;54.122;17.974;2023-10-13T03:42:19;8.40;99.90
19385;DHT22;9828;54.122;17.974;2023-10-13T03:47:42;8.30;99.90
19385;DHT22;9828;54.122;17.974;2023-10-13T03:53:06;8.10;99.90
19385;DHT22;9828;54.122;17.974;2023-10-13T03:58:38;8.00;99.90
19385;DHT22;9828;54.122;17.974;2023-10-13T04:04:00;7.90;99.90
19385;DHT22;9828;54.122;17.974;2023-10-13T04:09:24;7.80;99.90
19385;DHT22;9828;54.122;17.974;2023-10-13T04:14:51;7.80;1.00
19385;DHT22;9828;54.122;17.974;2023-10-13T04:20:19;7.70;99.90
19385;DHT22;9828;54.122;17.974;2023-10-13T04:25:53;7.70;99.90
19385;DHT22;9828;54.122;17.974;2023-10-13T04:31:28;7.70;99.90
19385;DHT22;9828;54.122;17.974;2023-10-13T04:37:16;7.70;1.00
19385;DHT22;9828;54.122;17.974;2023-10-13T04:43:03;7.70;99.90
19385;DHT22;9828;54.122;17.974;2023-10-13T04:48:47;7.70;99.90
19385;DHT22;9828;54.122;17.974;2023-10-13T04:54:08;7.70;99.90
19385;DHT22;9828;54.122;17.974;2023-10-13T04:59:47;7.70;99.90
19385;DHT22;9828;54.122;17.974;2023-10-13T05:05:37;7.60;1.00
19385;DHT22;9828;54.122;17.974;2023-10-13T05:11:15;7.50;99.90
19385;DHT22;9828;54.122;17.974;2023-10-13T05:16:54;7.40;57.80
19385;DHT22;9828;54.122;17.974;2023-10-13T05:22:34;7.50;47.10
19385;DHT22;9828;54.122;17.974;2023-10-13T05:28:14;7.40;99.90
19385;DHT22;9828;54.122;17.974;2023-10-13T05:33:55;7.40;99.90
19385;DHT22;9828;54.122;17.974;2023-10-13T05:39:36;7.30;99.90
19385;DHT22;9828;54.122;17.974;2023-10-13T05:45:15;7.20;99.90
19385;DHT22;9828;54.122;17.974;2023-10-13T05:50:37;7.10;99.90
19385;DHT22;9828;54.122;17.974;2023-10-13T05:56:18;7.10;1.00
19385;DHT22;9828;54.122;17.974;2023-10-13T06:02:08;7.00;99.90
19385;DHT22;9828;54.122;17.974;2023-10-13T06:07:48;6.90;99.90
19385;DHT22;9828;54.122;17.974;2023-10-13T06:13:28;6.90;99.90
19385;DHT22;9828;54.122;17.974;2023-10-13T06:19:08;7.00;99.90
19385;DHT22;9828;54.122;17.974;2023-10-13T06:24:48;7.20;99.90
19385;DHT22;9828;54.122;17.974;2023-10-13T06:30:28;7.60;30.30
19385;DHT22;9828;54.122;17.974;2023-10-13T06:35:52;7.90;99.90
19385;DHT22;9828;54.122;17.974;2023-10-13T06:41:17;8.20;1.00
19385;DHT22;9828;54.122;17.974;2023-10-13T06:46:53;8.60;1.00
19385;DHT22;9828;54.122;17.974;2023-10-13T06:52:15;9.30;1.00
19385;DHT22;9828;54.122;17.974;2023-10-13T06:57:36;9.50;1.00
19385;DHT22;9828;54.122;17.974;2023-10-13T07:02:58;9.70;1.00
19385;DHT22;9828;54.122;17.974;2023-10-13T07:08:39;10.00;1.00
19385;DHT22;9828;54.122;17.974;2023-10-13T07:14:04;9.90;1.00
19385;DHT22;9828;54.122;17.974;2023-10-13T07:19:32;9.80;41.20
19385;DHT22;9828;54.122;17.974;2023-10-13T07:24:57;10.00;99.90
19385;DHT22;9828;54.122;17.974;2023-10-13T07:30:18;10.20;99.90
19385;DHT22;9828;54.122;17.974;2023-10-13T07:35:40;10.30;1.00
19385;DHT22;9828;54.122;17.974;2023-10-13T07:41:02;10.30;99.90
19385;DHT22;9828;54.122;17.974;2023-10-13T07:46:29;10.30;1.00
19385;DHT22;9828;54.122;17.974;2023-10-13T07:51:53;10.40;1.00
19385;DHT22;9828;54.122;17.974;2023-10-13T07:57:17;10.40;1.00
19385;DHT22;9828;54.122;17.974;2023-10-13T08:02:39;10.60;1.00
19385;DHT22;9828;54.122;17.974;2023-10-13T08:08:10;10.60;1.00
19385;DHT22;9828;54.122;17.974;2023-10-13T08:13:35;10.80;1.00
19385;DHT22;9828;54.122;17.974;2023-10-13T08:19:02;10.70;99.90
19385;DHT22;9828;54.122;17.974;2023-10-13T08:24:27;10.80;1.00
19385;DHT22;9828;54.122;17.974;2023-10-13T08:29:48;10.90;99.90
19385;DHT22;9828;54.122;17.974;2023-10-13T08:35:16;10.80;99.90
19385;DHT22;9828;54.122;17.974;2023-10-13T08:40:44;11.00;99.90
19385;DHT22;9828;54.122;17.974;2023-10-13T08:46:38;11.10;99.90
19385;DHT22;9828;54.122;17.974;2023-10-13T08:52:25;11.30;1.00
19385;DHT22;9828;54.122;17.974;2023-10-13T08:58:05;11.40;99.90
19385;DHT22;9828;54.122;17.974;2023-10-13T09:03:35;11.50;1.00
19385;DHT22;9828;54.122;17.974;2023-10-13T09:09:06;11.50;1.00
19385;DHT22;9828;54.122;17.974;2023-10-13T09:14:29;11.40;8.90
19385;DHT22;9828;54.122;17.974;2023-10-13T09:19:57;11.50;99.90
19385;DHT22;9828;54.122;17.974;2023-10-13T09:25:22;11.60;99.90
19385;DHT22;9828;54.122;17.974;2023-10-13T09:30:56;11.70;1.00
19385;DHT22;9828;54.122;17.974;2023-10-13T09:36:18;11.80;1.30
19385;DHT22;9828;54.122;17.974;2023-10-13T09:41:40;11.90;1.00
19385;DHT22;9828;54.122;17.974;2023-10-13T09:47:02;12.10;1.00
19385;DHT22;9828;54.122;17.974;2023-10-13T09:52:45;12.20;1.00
19385;DHT22;9828;54.122;17.974;2023-10-13T09:58:09;12.30;1.00
19385;DHT22;9828;54.122;17.974;2023-10-13T10:03:32;12.40;1.00
19385;DHT22;9828;54.122;17.974;2023-10-13T10:09:07;12.30;1.00
19385;DHT22;9828;54.122;17.974;2023-10-13T10:14:51;12.40;1.00
19385;DHT22;9828;54.122;17.974;2023-10-13T10:20:30;12.50;1.00
19385;DHT22;9828;54.122;17.974;2023-10-13T10:26:13;12.60;1.00
19385;DHT22;9828;54.122;17.974;2023-10-13T10:31:40;12.80;1.00
19385;DHT22;9828;54.122;17.974;2023-10-13T10:37:05;12.80;1.00
19385;DHT22;9828;54.122;17.974;2023-10-13T10:42:30;12.90;99.90
19385;DHT22;9828;54.122;17.974;2023-10-13T10:47:51;13.00;1.00
19385;DHT22;9828;54.122;17.974;2023-10-13T10:53:23;13.10;1.00
19385;DHT22;9828;54.122;17.974;2023-10-13T10:59:17;13.00;99.90
19385;DHT22;9828;54.122;17.974;2023-10-13T11:04:43;13.10;1.00
19385;DHT22;9828;54.122;17.974;2023-10-13T11:10:17;13.20;99.90
19385;DHT22;9828;54.122;17.974;2023-10-13T11:15:53;13.30;1.00
19385;DHT22;9828;54.122;17.974;2023-10-13T11:21:16;13.40;1.00
19385;DHT22;9828;54.122;17.974;2023-10-13T11:26:38;13.40;99.90
19385;DHT22;9828;54.122;17.974;2023-10-13T11:32:18;13.30;1.00
19385;DHT22;9828;54.122;17.974;2023-10-13T11:37:42;13.20;46.80
19385;DHT22;9828;54.122;17.974;2023-10-13T11:43:04;13.20;1.00
19385;DHT22;9828;54.122;17.974;2023-10-13T11:48:25;13.30;1.00
19385;DHT22;9828;54.122;17.974;2023-10-13T11:53:57;13.20;99.90
19385;DHT22;9828;54.122;17.974;2023-10-13T11:59:18;13.20;99.90
19385;DHT22;9828;54.122;17.974;2023-10-13T12:04:48;13.20;1.00
19385;DHT22;9828;54.122;17.974;2023-10-13T12:10:15;13.20;1.00
19385;DHT22;9828;54.122;17.974;2023-10-13T12:15:41;13.30;1.00
19385;DHT22;9828;54.122;17.974;2023-10-13T12:21:13;13.20;1.00
19385;DHT22;9828;54.122;17.974;2023-10-13T12:26:41;13.20;1.00
19385;DHT22;9828;54.122;17.974;2023-10-13T12:32:03;13.20;1.00
19385;DHT22;9828;54.122;17.974;2023-10-13T12:37:33;13.20;1.00
19385;DHT22;9828;54.122;17.974;2023-10-13T12:42:58;13.20;1.00
19385;DHT22;9828;54.122;17.974;2023-10-13T12:48:38;13.30;1.00
19385;DHT22;9828;54.122;17.974;2023-10-13T12:54:18;13.30;1.00
19385;DHT22;9828;54.122;17.974;2023-10-13T12:59:45;13.30;3.30
19385;DHT22;9828;54.122;17.974;2023-10-13T13:05:06;13.30;33.60
19385;DHT22;9828;54.122;17.974;2023-10-13T13:10:32;13.30;99.90
19385;DHT22;9828;54.122;17.974;2023-10-13T13:15:56;13.30;99.90
19385;DHT22;9828;54.122;17.974;2023-10-13T13:21:17;13.30;99.90
19385;DHT22;9828;54.122;17.974;2023-10-13T13:26:44;13.30;99.90
19385;DHT22;9828;54.122;17.974;2023-10-13T13:32:05;13.30;99.90
19385;DHT22;9828;54.122;17.974;2023-10-13T13:37:27;13.30;99.90
19385;DHT22;9828;54.122;17.974;2023-10-13T13:42:50;13.30;99.90
19385;DHT22;9828;54.122;17.974;2023-10-13T13:48:11;13.30;99.90
19385;DHT22;9828;54.122;17.974;2023-10-13T13:53:37;13.30;99.90
19385;DHT22;9828;54.122;17.974;2023-10-13T13:59:04;13.40;99.90
19385;DHT22;9828;54.122;17.974;2023-10-13T14:04:37;13.40;99.90
19385;DHT22;9828;54.122;17.974;2023-10-13T14:09:58;13.40;99.90
19385;DHT22;9828;54.122;17.974;2023-10-13T14:15:28;13.50;99.90
19385;DHT22;9828;54.122;17.974;2023-10-13T14:20:49;13.50;99.90
19385;DHT22;9828;54.122;17.974;2023-10-13T14:26:12;13.60;99.90
19385;DHT22;9828;54.122;17.974;2023-10-13T14:31:35;13.80;99.90
19385;DHT22;9828;54.122;17.974;2023-10-13T15:04:03;14.20;99.90
19385;DHT22;9828;54.122;17.974;2023-10-13T15:09:26;14.40;99.90
19385;DHT22;9828;54.122;17.974;2023-10-13T15:14:47;14.30;99.90
19385;DHT22;9828;54.122;17.974;2023-10-13T15:20:08;14.40;99.90
19385;DHT22;9828;54.122;17.974;2023-10-13T15:25:37;14.40;99.90
19385;DHT22;9828;54.122;17.974;2023-10-13T15:31:11;14.60;99.90
19385;DHT22;9828;54.122;17.974;2023-10-13T15:36:44;14.50;99.90
19385;DHT22;9828;54.122;17.974;2023-10-13T15:42:05;14.60;99.90
19385;DHT22;9828;54.122;17.974;2023-10-13T15:47:29;14.50;99.90
19385;DHT22;9828;54.122;17.974;2023-10-13T15:52:58;14.70;99.90
19385;DHT22;9828;54.122;17.974;2023-10-13T15:58:20;14.70;99.90
19385;DHT22;9828;54.122;17.974;2023-10-13T16:03:45;14.80;99.90
19385;DHT22;9828;54.122;17.974;2023-10-13T16:09:16;14.80;99.90
19385;DHT22;9828;54.122;17.974;2023-10-13T16:14:43;14.80;99.90
19385;DHT22;9828;54.122;17.974;2023-10-13T16:20:06;14.90;99.90
19385;DHT22;9828;54.122;17.974;2023-10-13T16:25:36;14.90;99.90
19385;DHT22;9828;54.122;17.974;2023-10-13T16:30:58;14.90;99.90
19385;DHT22;9828;54.122;17.974;2023-10-13T16:36:19;15.00;99.90
19385;DHT22;9828;54.122;17.974;2023-10-13T16:41:43;15.00;99.90
19385;DHT22;9828;54.122;17.974;2023-10-13T16:47:06;15.10;99.90
19385;DHT22;9828;54.122;17.974;2023-10-13T16:52:28;15.10;99.90
19385;DHT22;9828;54.122;17.974;2023-10-13T16:57:50;15.20;99.90
19385;DHT22;9828;54.122;17.974;2023-10-13T17:03:12;15.30;99.90
19385;DHT22;9828;54.122;17.974;2023-10-13T17:08:33;15.30;99.90
19385;DHT22;9828;54.122;17.974;2023-10-13T17:13:57;15.30;99.90
19385;DHT22;9828;54.122;17.974;2023-10-13T17:19:19;15.40;99.90
19385;DHT22;9828;54.122;17.974;2023-10-13T17:24:40;15.40;99.90
19385;DHT22;9828;54.122;17.974;2023-10-13T17:30:01;15.40;99.90
19385;DHT22;9828;54.122;17.974;2023-10-13T17:35:23;15.50;99.90
19385;DHT22;9828;54.122;17.974;2023-10-13T17:40:44;15.50;99.90
19385;DHT22;9828;54.122;17.974;2023-10-13T17:46:11;15.50;99.90
19385;DHT22;9828;54.122;17.974;2023-10-13T17:51:32;15.60;99.90
19385;DHT22;9828;54.122;17.974;2023-10-13T17:56:54;15.60;99.90
19385;DHT22;9828;54.122;17.974;2023-10-13T18:02:15;15.60;99.90
19385;DHT22;9828;54.122;17.974;2023-10-13T18:07:41;15.70;99.90
19385;DHT22;9828;54.122;17.974;2023-10-13T18:13:04;15.80;99.90
19385;DHT22;9828;54.122;17.974;2023-10-13T18:18:26;15.80;99.90
19385;DHT22;9828;54.122;17.974;2023-10-13T18:23:48;15.80;99.90
19385;DHT22;9828;54.122;17.974;2023-10-13T18:29:09;15.90;99.90
19385;DHT22;9828;54.122;17.974;2023-10-13T18:34:30;15.90;99.90
19385;DHT22;9828;54.122;17.974;2023-10-13T18:39:53;15.80;99.90
19385;DHT22;9828;54.122;17.974;2023-10-13T18:45:18;15.90;99.90
19385;DHT22;9828;54.122;17.974;2023-10-13T18:50:46;16.00;99.90
19385;DHT22;9828;54.122;17.974;2023-10-13T18:56:09;16.00;99.90
19385;DHT22;9828;54.122;17.974;2023-10-13T19:01:31;16.10;99.90
19385;DHT22;9828;54.122;17.974;2023-10-13T19:06:55;16.20;99.90
19385;DHT22;9828;54.122;17.974;2023-10-13T19:12:20;16.20;99.90
19385;DHT22;9828;54.122;17.974;2023-10-13T19:17:43;16.20;99.90
19385;DHT22;9828;54.122;17.974;2023-10-13T19:23:05;16.10;99.90
19385;DHT22;9828;54.122;17.974;2023-10-13T19:28:26;16.10;99.90
19385;DHT22;9828;54.122;17.974;2023-10-13T19:33:47;16.10;99.90
19385;DHT22;9828;54.122;17.974;2023-10-13T19:39:10;16.10;99.90
19385;DHT22;9828;54.122;17.974;2023-10-13T19:44:40;16.20;99.90
19385;DHT22;9828;54.122;17.974;2023-10-13T19:50:04;16.20;99.90
19385;DHT22;9828;54.122;17.974;2023-10-13T19:55:25;16.20;99.90
19385;DHT22;9828;54.122;17.974;2023-10-13T20:00:47;16.20;99.90
19385;DHT22;9828;54.122;17.974;2023-10-13T20:06:08;16.30;99.90
19385;DHT22;9828;54.122;17.974;2023-10-13T20:11:30;16.30;99.90
19385;DHT22;9828;54.122;17.974;2023-10-13T20:16:51;16.30;99.90
19385;DHT22;9828;54.122;17.974;2023-10-13T20:22:15;16.30;99.90
19385;DHT22;9828;54.122;17.974;2023-10-13T20:27:36;16.30;99.90
19385;DHT22;9828;54.122;17.974;2023-10-13T20:32:59;16.30;99.90
19385;DHT22;9828;54.122;17.974;2023-10-13T20:38:20;16.40;99.90
19385;DHT22;9828;54.122;17.974;2023-10-13T20:43:41;16.40;99.90
19385;DHT22;9828;54.122;17.974;2023-10-13T20:49:02;16.40;99.90
19385;DHT22;9828;54.122;17.974;2023-10-13T20:54:25;16.40;99.90
19385;DHT22;9828;54.122;17.974;2023-10-13T20:59:47;16.40;99.90
19385;DHT22;9828;54.122;17.974;2023-10-13T21:05:10;16.50;99.90
19385;DHT22;9828;54.122;17.974;2023-10-13T21:10:33;16.50;99.90
19385;DHT22;9828;54.122;17.974;2023-10-13T21:15:54;16.60;99.90
19385;DHT22;9828;54.122;17.974;2023-10-13T21:21:17;16.70;99.90
19385;DHT22;9828;54.122;17.974;2023-10-13T21:26:42;16.70;99.90
19385;DHT22;9828;54.122;17.974;2023-10-13T21:32:03;16.80;99.90
19385;DHT22;9828;54.122;17.974;2023-10-13T21:37:24;16.80;99.90
19385;DHT22;9828;54.122;17.974;2023-10-13T21:42:46;16.80;99.90
19385;DHT22;9828;54.122;17.974;2023-10-13T21:48:08;16.90;99.90
19385;DHT22;9828;54.122;17.974;2023-10-13T21:53:30;16.90;99.90
19385;DHT22;9828;54.122;17.974;2023-10-13T21:58:51;17.00;99.90
19385;DHT22;9828;54.122;17.974;2023-10-13T22:04:12;17.00;99.90
19385;DHT22;9828;54.122;17.974;2023-10-13T22:09:41;17.10;99.90
19385;DHT22;9828;54.122;17.974;2023-10-13T22:15:07;17.10;99.90
19385;DHT22;9828;54.122;17.974;2023-10-13T22:20:28;17.10;99.90
19385;DHT22;9828;54.122;17.974;2023-10-13T22:25:50;17.20;1.00
19385;DHT22;9828;54.122;17.974;2023-10-13T22:31:12;17.30;99.90
19385;DHT22;9828;54.122;17.974;2023-10-13T22:36:34;17.30;1.00
19385;DHT22;9828;54.122;17.974;2023-10-13T22:41:55;17.30;99.90
19385;DHT22;9828;54.122;17.974;2023-10-13T22:47:19;17.30;1.00
19385;DHT22;9828;54.122;17.974;2023-10-13T22:52:41;17.30;99.90
19385;DHT22;9828;54.122;17.974;2023-10-13T22:58:04;17.40;1.00
19385;DHT22;9828;54.122;17.974;2023-10-13T23:03:30;17.40;99.90
19385;DHT22;9828;54.122;17.974;2023-10-13T23:09:03;17.40;1.00
19385;DHT22;9828;54.122;17.974;2023-10-13T23:14:32;17.30;44.30
19385;DHT22;9828;54.122;17.974;2023-10-13T23:19:54;17.30;1.00
19385;DHT22;9828;54.122;17.974;2023-10-13T23:25:15;17.40;99.90
19385;DHT22;9828;54.122;17.974;2023-10-13T23:30:38;17.30;99.90
19385;DHT22;9828;54.122;17.974;2023-10-13T23:35:59;17.30;1.00
19385;DHT22;9828;54.122;17.974;2023-10-13T23:41:24;17.40;99.90
19385;DHT22;9828;54.122;17.974;2023-10-13T23:46:48;17.40;1.00
19385;DHT22;9828;54.122;17.974;2023-10-13T23:52:10;17.40;1.00
19385;DHT22;9828;54.122;17.974;2023-10-13T23:57:31;17.40;1.00
